Data for 01/06/2014

Time Sea-Level Adjusted Pressure Absolute Pressure Temperature Relative Humidity Dew Point   
(mb) (inHg) (mb) (inHg) (C) (F) (%) (C) (F)
00:05 1028 30.36 857 25.31 -19.3 -2.7 71 -23.4 -10
00:10 1028 30.36 857 25.31 -19.4 -2.9 71 -23.5 -10.3
00:15 1028 30.36 857 25.31 -19.6 -3.2 72 -23.4 -10.2
00:20 1028 30.36 857 25.31 -19.6 -3.3 71 -23.6 -10.5
00:25 1028 30.36 857 25.31 -19.7 -3.4 72 -23.6 -10.5
00:30 1028 30.36 857 25.31 -19.6 -3.3 71 -23.6 -10.5
00:35 1028 30.36 857 25.31 -19.8 -3.7 73 -23.6 -10.4
00:40 1028 30.36 857 25.31 -19.5 -3.1 71 -23.5 -10.4
00:45 1028 30.36 857 25.31 -19.4 -2.9 72 -23.3 -10
00:50 1028 30.36 857 25.31 -19.3 -2.7 71 -23.3 -9.9
00:55 1028 30.36 857 25.31 -19.6 -3.2 75 -23 -9.4
01:00 1028 30.36 857 25.31 -20 -4.1 74 -23.5 -10.4
01:05 1028 30.36 857 25.31 -20.3 -4.5 80 -22.9 -9.2
01:10 1028 30.36 857 25.31 -19.6 -3.3 74 -23.1 -9.6
01:15 1028 30.36 857 25.31 -19.2 -2.6 70 -23.4 -10.1
01:20 1028 30.36 857 25.31 -19 -2.2 71 -23 -9.5
01:25 1028 30.36 857 25.31 -19.1 -2.4 71 -23.2 -9.7
01:30 1028 30.36 857 25.31 -19.4 -2.9 72 -23.3 -9.9
01:35 1028 30.36 857 25.31 -19.5 -3 71 -23.5 -10.3
01:40 1028 30.36 857 25.31 -19.2 -2.6 70 -23.5 -10.2
01:45 1028 30.36 857 25.31 -19.8 -3.6 71 -23.7 -10.7
01:50 1028 30.36 857 25.31 -19.9 -3.8 73 -23.5 -10.3
01:55 1028 30.36 857 25.31 -19.8 -3.6 74 -23.2 -9.8
02:00 1028 30.36 857 25.31 -19.6 -3.3 76 -22.9 -9.2
02:05 1028 30.36 857 25.31 -19 -2.3 72 -22.9 -9.2
02:10 1028 30.36 857 25.31 -18.8 -1.8 71 -22.8 -9
02:15 1028 30.36 857 25.31 -18.6 -1.5 70 -22.8 -9
02:20 1027 30.33 857 25.31 -18.5 -1.2 69 -22.8 -9
02:25 1027 30.33 857 25.31 -18.8 -1.8 71 -22.7 -8.9
02:30 1027 30.33 857 25.31 -19.3 -2.8 74 -22.8 -9.1
02:35 1027 30.33 857 25.31 -19.5 -3.1 74 -23 -9.4
02:40 1027 30.33 857 25.31 -19.1 -2.3 73 -22.7 -8.8
02:45 1027 30.33 857 25.31 -18.9 -2 72 -22.8 -9.1
02:50 1028 30.36 857 25.31 -19 -2.2 73 -22.7 -8.9
02:55 1028 30.36 857 25.31 -19.4 -2.8 75 -22.8 -9
03:00 1028 30.36 857 25.31 -19.4 -2.8 75 -22.7 -8.9
03:05 1028 30.36 857 25.31 -19.3 -2.8 71 -23.3 -9.9
03:10 1028 30.36 857 25.31 -19.2 -2.5 72 -23 -9.5
03:15 1028 30.36 857 25.31 -19.3 -2.7 73 -23 -9.4
03:20 1028 30.36 857 25.31 -19.8 -3.6 75 -23.1 -9.6
03:25 1028 30.36 857 25.31 -19.6 -3.3 73 -23.3 -10
03:30 1028 30.36 857 25.31 -18.6 -1.5 68 -23.1 -9.6
03:35 1028 30.36 857 25.31 -18.5 -1.3 68 -23 -9.4
03:40 1028 30.36 857 25.31 -18.4 -1 69 -22.7 -8.8
03:45 1028 30.36 857 25.31 -18.1 -0.6 68 -22.7 -8.8
03:50 1028 30.36 857 25.31 -18.1 -0.6 70 -22.3 -8.1
03:55 1028 30.36 857 25.31 -17.9 -0.2 70 -22.1 -7.7
04:00 1028 30.36 857 25.31 -17.9 -0.1 70 -22 -7.6
04:05 1028 30.36 857 25.31 -17.9 -0.2 71 -22 -7.6
04:10 1028 30.36 857 25.31 -17.8 -0.1 72 -21.8 -7.2
04:15 1028 30.36 857 25.31 -17.7 0.1 71 -21.8 -7.2
04:20 1028 30.36 857 25.31 -17.5 0.5 70 -21.8 -7.2
04:25 1028 30.36 857 25.31 -17.2 1 70 -21.5 -6.7
04:30 1028 30.36 857 25.31 -17.1 1.3 70 -21.4 -6.5
04:35 1028 30.36 857 25.31 -16.9 1.6 70 -21.1 -6
04:40 1028 30.36 857 25.31 -16.7 2 70 -20.9 -5.6
04:45 1028 30.36 857 25.31 -16.6 2.2 68 -21.2 -6.1
04:50 1028 30.36 857 25.31 -16.4 2.4 70 -20.7 -5.2
04:55 1028 30.36 857 25.31 -16.3 2.7 70 -20.5 -4.8
05:00 1028 30.36 857 25.31 -16.1 3.1 70 -20.4 -4.7
05:05 1028 30.36 857 25.31 -15.9 3.4 70 -20.2 -4.4
05:10 1028 30.36 857 25.31 -15.9 3.4 68 -20.5 -5
05:15 1028 30.36 857 25.31 -15.7 3.7 68 -20.3 -4.6
05:20 1028 30.36 857 25.31 -15.6 3.9 69 -20.2 -4.3
05:25 1028 30.36 857 25.31 -15.6 3.9 68 -20.2 -4.3
05:30 1028 30.36 857 25.31 -15.6 3.8 70 -20 -4
05:35 1028 30.36 857 25.31 -15.7 3.7 69 -20.1 -4.2
05:40 1028 30.36 857 25.31 -15.8 3.7 71 -19.9 -3.7
05:45 1028 30.36 857 25.31 -15.8 3.6 71 -19.9 -3.9
05:50 1028 30.36 857 25.31 -15.9 3.4 71 -20.1 -4.2
05:55 1028 30.36 857 25.31 -16 3.2 73 -19.8 -3.6
06:00 1028 30.36 857 25.31 -16.2 2.9 73 -20 -4
06:05 1028 30.36 857 25.31 -16.4 2.5 73 -20.2 -4.4
06:10 1028 30.36 857 25.31 -16.5 2.4 71 -20.6 -5
06:15 1028 30.36 857 25.31 -16.4 2.5 69 -20.9 -5.5
06:20 1028 30.36 857 25.31 -16.2 2.8 71 -20.4 -4.7
06:25 1028 30.36 857 25.31 -16.2 2.8 71 -20.4 -4.8
06:30 1028 30.36 857 25.31 -16.3 2.8 71 -20.4 -4.8
06:35 1028 30.36 857 25.31 -16.2 2.9 75 -19.7 -3.4
06:40 1028 30.36 857 25.31 -16.2 2.8 73 -20 -4
06:45 1028 30.36 857 25.31 -16.4 2.5 74 -20.1 -4.1
06:50 1028 30.36 857 25.31 -16.3 2.7 75 -19.8 -3.7
06:55 1028 30.36 857 25.31 -16.3 2.6 77 -19.5 -3.1
07:00 1028 30.36 857 25.31 -16.3 2.6 76 -19.6 -3.3
07:05 1028 30.36 857 25.31 -16.6 2.1 77 -19.8 -3.7
07:10 1028 30.36 857 25.31 -16.6 2.2 76 -19.8 -3.7
07:15 1027 30.33 857 25.31 -16.8 1.8 77 -20 -4
07:20 1027 30.33 857 25.31 -16.7 2 75 -20.1 -4.2
07:25 1027 30.33 856 25.28 -16.3 2.7 74 -20 -4
07:30 1027 30.33 856 25.28 -16.4 2.4 73 -20.2 -4.4
07:35 1027 30.33 856 25.28 -17.1 1.3 74 -20.7 -5.2
07:40 1027 30.33 856 25.28 -17 1.5 74 -20.6 -5.2
07:45 1027 30.33 856 25.28 -17 1.3 74 -20.7 -5.3
07:50 1027 30.33 856 25.28 -17.1 1.3 74 -20.7 -5.2
07:55 1027 30.33 856 25.28 -16.8 1.7 73 -20.6 -5.2
08:00 1027 30.33 856 25.28 -16.6 2.2 71 -20.6 -5.2
08:05 1027 30.33 856 25.28 -16.4 2.5 71 -20.5 -5
08:10 1027 30.33 856 25.28 -16.7 1.9 72 -20.7 -5.3
08:15 1027 30.33 856 25.28 -16.4 2.5 71 -20.5 -4.9
08:20 1027 30.33 856 25.28 -16.4 2.5 72 -20.3 -4.6
08:25 1027 30.33 856 25.28 -16.4 2.6 72 -20.3 -4.5
08:30 1027 30.33 856 25.28 -16.2 2.9 72 -20.1 -4.1
08:35 1027 30.33 856 25.28 -16 3.2 70 -20.3 -4.5
08:40 1027 30.33 856 25.28 -15.4 4.3 66 -20.4 -4.7
08:45 1027 30.33 856 25.28 -15.3 4.5 68 -19.9 -3.8
08:50 1027 30.33 856 25.28 -15.3 4.4 67 -20.2 -4.3
08:55 1027 30.33 856 25.28 -15.1 4.8 66 -20 -4.1
09:00 1027 30.33 856 25.28 -14.8 5.4 66 -19.9 -3.8
09:05 1027 30.33 856 25.28 -14.6 5.7 65 -19.8 -3.6
09:10 1027 30.33 856 25.28 -14.5 5.9 66 -19.5 -3.1
09:15 1027 30.33 856 25.28 -14.5 6 68 -19.2 -2.5
09:20 1027 30.33 856 25.28 -14.4 6 70 -18.8 -1.9
09:25 1027 30.33 856 25.28 -14.4 6.1 68 -19.1 -2.3
09:30 1027 30.33 856 25.28 -14.7 5.5 71 -18.9 -1.9
09:35 1027 30.33 856 25.28 -14.6 5.8 70 -19 -2.1
09:40 1027 30.33 856 25.28 -14.3 6.2 70 -18.6 -1.5
09:45 1027 30.33 856 25.28 -14.4 6.2 73 -18.2 -0.8
09:50 1027 30.33 856 25.28 -14.3 6.2 71 -18.5 -1.4
09:55 1027 30.33 856 25.28 -14 6.8 68 -18.6 -1.6
10:00 1027 30.33 856 25.28 -13.7 7.3 67 -18.6 -1.4
10:05 1027 30.33 856 25.28 -13.4 7.9 65 -18.6 -1.5
10:10 1027 30.33 856 25.28 -13.4 7.9 66 -18.4 -1.1
10:15 1027 30.33 856 25.28 -13 8.5 66 -18.2 -0.8
10:20 1027 30.33 856 25.28 -13.2 8.3 68 -17.9 -0.2
10:25 1027 30.33 856 25.28 -13.4 7.9 68 -18.1 -0.5
10:30 1027 30.33 856 25.28 -13.5 7.8 68 -18.3 -0.9
10:35 1027 30.33 856 25.28 -13.1 8.5 67 -18 -0.4
10:40 1027 30.33 856 25.28 -12.3 9.9 64 -17.8 -0.1
10:45 1027 30.33 856 25.28 -12 10.5 63 -17.6 0.3
10:50 1027 30.33 856 25.28 -11.4 11.5 60 -17.8 0
10:55 1027 30.33 856 25.28 -11 12.2 59 -17.6 0.3
11:00 1027 30.33 856 25.28 -10.4 13.2 57 -17.3 0.8
11:05 1027 30.33 856 25.28 -10 14 55 -17.4 0.6
11:10 1027 30.33 856 25.28 -10.2 13.6 56 -17.5 0.5
11:15 1027 30.33 856 25.28 -9.4 15.1 52 -17.6 0.3
11:20 1027 30.33 856 25.28 -8.5 16.8 51 -17 1.5
11:25 1027 30.33 856 25.28 -8.5 16.7 50 -17 1.3
11:30 1027 30.33 856 25.28 -8.5 16.8 49 -17.3 0.8
11:35 1027 30.33 856 25.28 -8.5 16.7 50 -17.1 1.3
11:40 1027 30.33 856 25.28 -7.9 17.7 48 -17.1 1.2
11:45 1027 30.33 856 25.28 -7.9 17.9 47 -17.3 0.8
11:50 1026 30.3 856 25.28 -8.1 17.5 48 -17.3 0.8
11:55 1027 30.33 856 25.28 -7.9 17.9 52 -16 3.1
12:00 1027 30.33 856 25.28 -7.4 18.7 50 -16.2 2.8
12:05 1026 30.3 856 25.28 -7.3 18.8 49 -16.3 2.7
12:10 1026 30.3 856 25.28 -7.4 18.7 48 -16.6 2.1
12:15 1026 30.3 855 25.25 -7.5 18.5 46 -17.2 1
12:20 1026 30.3 855 25.25 -7.3 19 46 -17.1 1.3
12:25 1026 30.3 855 25.25 -5.8 21.6 44 -16.2 2.8
12:30 1026 30.3 855 25.25 -5.6 22 43 -16.4 2.5
12:35 1026 30.3 855 25.25 -5.5 22.1 43 -16.1 3
12:40 1026 30.3 855 25.25 -6.1 21.1 44 -16.4 2.5
12:45 1026 30.3 855 25.25 -6.3 20.6 45 -16.5 2.3
12:50 1025 30.27 855 25.25 -5.3 22.5 43 -15.9 3.3
12:55 1025 30.27 855 25.25 -4.8 23.3 42 -15.9 3.4
13:00 1025 30.27 854 25.22 -5.4 22.3 44 -15.9 3.4
13:05 1025 30.27 854 25.22 -5 23 43 -15.8 3.6
13:10 1025 30.27 854 25.22 -4.8 23.3 43 -15.6 3.9
13:15 1025 30.27 854 25.22 -4.7 23.5 41 -16.1 3.1
13:20 1025 30.27 854 25.22 -5.2 22.7 43 -15.9 3.4
13:25 1025 30.27 854 25.22 -5.5 22.1 45 -15.8 3.6
13:30 1025 30.27 854 25.22 -4.8 23.4 42 -15.8 3.5
13:35 1025 30.27 854 25.22 -4 24.8 43 -15 5.1
13:40 1025 30.27 854 25.22 -4.7 23.6 44 -15.2 4.6
13:45 1025 30.27 854 25.22 -4.2 24.5 42 -15.4 4.3
13:50 1024 30.24 854 25.22 -3.8 25.2 41 -15.2 4.7
13:55 1024 30.24 854 25.22 -4.1 24.6 44 -14.7 5.6
14:00 1024 30.24 853 25.19 -4.5 23.8 44 -15.1 4.8
14:05 1024 30.24 853 25.19 -4.9 23.3 46 -14.9 5.2
14:10 1024 30.24 853 25.19 -5.3 22.5 48 -14.7 5.5
14:15 1024 30.24 853 25.19 -5.8 21.6 48 -15 5
14:20 1024 30.24 853 25.19 -6.2 20.9 49 -15.3 4.5
14:25 1024 30.24 853 25.19 -6.1 21 49 -15.2 4.7
14:30 1024 30.24 853 25.19 -5.7 21.8 49 -14.7 5.5
14:35 1024 30.24 853 25.19 -6 21.1 48 -15.3 4.4
14:40 1023 30.21 853 25.19 -6.9 19.6 54 -14.8 5.4
14:45 1023 30.21 853 25.19 -7.1 19.1 55 -14.8 5.3
14:50 1023 30.21 853 25.19 -6.9 19.6 53 -14.9 5.1
14:55 1023 30.21 852 25.16 -6.6 20.2 51 -15.2 4.7
15:00 1023 30.21 852 25.16 -6.7 19.9 51 -15.3 4.4
15:05 1023 30.21 852 25.16 -6.7 20 52 -15.1 4.8
15:10 1023 30.21 852 25.16 -6.8 19.8 52 -15.1 4.8
15:15 1023 30.21 852 25.16 -6.6 20.2 50 -15.3 4.4
15:20 1023 30.21 852 25.16 -6.5 20.2 51 -15 5.1
15:25 1023 30.21 852 25.16 -6.3 20.6 51 -14.8 5.3
15:30 1023 30.21 852 25.16 -6.2 20.8 51 -14.7 5.5
15:35 1023 30.21 852 25.16 -6.3 20.7 52 -14.5 5.9
15:40 1023 30.21 852 25.16 -6.1 21.1 53 -14.2 6.4
15:45 1023 30.21 852 25.16 -6 21.3 52 -14.3 6.2
15:50 1023 30.21 852 25.16 -6.5 20.4 56 -13.8 7.1
15:55 1023 30.21 852 25.16 -6.6 20.1 54 -14.4 6.2
16:00 1023 30.21 852 25.16 -6.3 20.6 56 -13.7 7.4
16:05 1023 30.21 852 25.16 -6.3 20.6 57 -13.6 7.5
16:10 1023 30.21 852 25.16 -6.4 20.4 56 -13.8 7.1
16:15 1023 30.21 852 25.16 -6.3 20.7 55 -13.9 7
16:20 1023 30.21 852 25.16 -6.2 20.8 56 -13.7 7.3
16:25 1023 30.21 852 25.16 -6.2 20.9 55 -13.9 7
16:30 1023 30.21 852 25.16 -6.3 20.6 60 -12.8 8.9
16:35 1023 30.21 852 25.16 -6.2 20.9 58 -13.1 8.5
16:40 1023 30.21 852 25.16 -6.2 20.9 59 -12.9 8.8
16:45 1023 30.21 852 25.16 -6.4 20.4 59 -13.2 8.2
16:50 1023 30.21 852 25.16 -6.5 20.3 59 -13.3 8
16:55 1023 30.21 852 25.16 -6.5 20.4 59 -13.2 8.2
17:00 1023 30.21 852 25.16 -6.6 20.2 59 -13.3 8.1
17:05 1023 30.21 852 25.16 -6.7 19.9 60 -13.2 8.2
17:10 1023 30.21 852 25.16 -6.6 20.1 58 -13.6 7.6
17:15 1023 30.21 852 25.16 -6.4 20.6 60 -12.9 8.7
17:20 1023 30.21 852 25.16 -6.3 20.6 58 -13.2 8.2
17:25 1022 30.18 852 25.16 -6 21.2 58 -13 8.5
17:30 1022 30.18 852 25.16 -5.7 21.8 58 -12.6 9.2
17:35 1022 30.18 852 25.16 -5.8 21.6 57 -13 8.6
17:40 1022 30.18 852 25.16 -5.7 21.8 58 -12.7 9.1
17:45 1022 30.18 852 25.16 -5.3 22.5 56 -12.7 9.2
17:50 1022 30.18 851 25.13 -5.3 22.4 57 -12.4 9.6
17:55 1022 30.18 851 25.13 -5.1 22.9 57 -12.4 9.7
18:00 1022 30.18 851 25.13 -5.2 22.6 60 -11.9 10.7
18:05 1022 30.18 851 25.13 -5.4 22.2 62 -11.7 11
18:10 1022 30.18 851 25.13 -5.3 22.4 63 -11.4 11.6
18:15 1022 30.18 851 25.13 -5.1 22.8 63 -11.2 11.9
18:20 1022 30.18 851 25.13 -5.3 22.5 64 -11.1 12
18:25 1022 30.18 851 25.13 -5.3 22.4 66 -10.8 12.6
18:30 1022 30.18 851 25.13 -5.3 22.5 66 -10.7 12.8
18:35 1022 30.18 851 25.13 -5.1 22.8 65 -10.7 12.7
18:40 1022 30.18 851 25.13 -4.9 23.2 64 -10.7 12.7
18:45 1022 30.18 851 25.13 -4.8 23.4 62 -11 12.2
18:50 1022 30.18 851 25.13 -4.7 23.5 64 -10.6 13
18:55 1022 30.18 851 25.13 -4.7 23.5 65 -10.4 13.2
19:00 1022 30.18 851 25.13 -4.7 23.5 66 -10.1 13.9
19:05 1022 30.18 851 25.13 -4.7 23.6 68 -9.8 14.4
19:10 1022 30.18 851 25.13 -4.7 23.5 67 -10 14
19:15 1022 30.18 851 25.13 -4.8 23.3 66 -10.3 13.5
19:20 1022 30.18 851 25.13 -4.9 23.1 67 -10.1 13.8
19:25 1022 30.18 851 25.13 -5.3 22.5 67 -10.5 13.1
19:30 1022 30.18 851 25.13 -5.6 21.9 69 -10.5 13.1
19:35 1022 30.18 851 25.13 -5.8 21.5 69 -10.6 12.9
19:40 1022 30.18 851 25.13 -6 21.2 68 -11 12.2
19:45 1022 30.18 851 25.13 -6 21.3 70 -10.7 12.8
19:50 1022 30.18 851 25.13 -6.1 21.1 70 -10.6 12.8
19:55 1021 30.15 851 25.13 -6 21.2 69 -10.8 12.6
20:00 1021 30.15 851 25.13 -5.9 21.4 69 -10.8 12.6
20:05 1021 30.15 851 25.13 -5.8 21.6 70 -10.4 13.2
20:10 1021 30.15 851 25.13 -5.6 22 70 -10.2 13.6
20:15 1021 30.15 850 25.1 -5.5 22.2 70 -10.1 13.8
20:20 1021 30.15 850 25.1 -5.4 22.3 71 -9.9 14.2
20:25 1021 30.15 850 25.1 -5.3 22.4 70 -10 14
20:30 1021 30.15 850 25.1 -5.3 22.5 69 -10.1 13.8
20:35 1021 30.15 850 25.1 -5.4 22.2 71 -9.8 14.3
20:40 1021 30.15 850 25.1 -5.8 21.6 71 -10.2 13.7
20:45 1021 30.15 850 25.1 -6.1 21.1 73 -10.2 13.6
20:50 1021 30.15 850 25.1 -6.3 20.7 73 -10.3 13.5
20:55 1021 30.15 850 25.1 -6.5 20.3 74 -10.4 13.3
21:00 1021 30.15 850 25.1 -6.9 19.6 76 -10.4 13.2
21:05 1021 30.15 850 25.1 -7 19.5 76 -10.5 13.1
21:10 1021 30.15 850 25.1 -6.9 19.6 77 -10.3 13.5
21:15 1021 30.15 850 25.1 -6.8 19.9 76 -10.3 13.5
21:20 1021 30.15 850 25.1 -6.4 20.4 76 -10 13.9
21:25 1020 30.12 850 25.1 -6.6 20.2 76 -10.1 13.9
21:30 1020 30.12 850 25.1 -6.7 20 77 -10.1 13.8
21:35 1020 30.12 850 25.1 -6.5 20.4 75 -10.1 13.8
21:40 1020 30.12 849 25.07 -6.2 20.8 77 -9.7 14.6
21:45 1020 30.12 849 25.07 -6.2 20.8 76 -9.7 14.5
21:50 1020 30.12 849 25.07 -6.2 20.8 77 -9.7 14.6
21:55 1020 30.12 849 25.07 -6.2 20.8 77 -9.5 14.8
22:00 1020 30.12 849 25.07 -6.2 20.9 76 -9.7 14.5
22:05 1020 30.12 849 25.07 -6.2 20.8 77 -9.7 14.6
22:10 1020 30.12 849 25.07 -6.4 20.5 77 -9.7 14.5
22:15 1020 30.12 849 25.07 -6.4 20.4 77 -9.8 14.4
22:20 1020 30.12 849 25.07 -6.5 20.4 77 -9.8 14.3
22:25 1020 30.12 849 25.07 -6.4 20.5 77 -9.9 14.2
22:30 1020 30.12 849 25.07 -6.6 20.2 78 -9.8 14.3
22:35 1020 30.12 849 25.07 -6.7 19.9 78 -10 14.1
22:40 1020 30.12 849 25.07 -6.7 20 78 -9.9 14.3
22:45 1020 30.12 849 25.07 -6.5 20.3 79 -9.6 14.8
22:50 1020 30.12 849 25.07 -6.4 20.5 77 -9.7 14.5
22:55 1020 30.12 849 25.07 -6.5 20.3 77 -9.9 14.1
23:00 1020 30.12 849 25.07 -6.7 19.9 81 -9.4 15
23:05 1020 30.12 849 25.07 -6.7 20 81 -9.4 15.2
23:10 1020 30.12 849 25.07 -6.4 20.6 77 -9.7 14.6
23:15 1020 30.12 849 25.07 -6.4 20.6 78 -9.6 14.6
23:20 1020 30.12 849 25.07 -6.4 20.6 77 -9.7 14.6
23:25 1020 30.12 849 25.07 -6.2 20.8 76 -9.8 14.3
23:30 1020 30.12 849 25.07 -5.8 21.5 72 -10 13.9
23:35 1020 30.12 849 25.07 -5.3 22.5 65 -10.9 12.3
23:40 1020 30.12 849 25.07 -4.7 23.5 59 -11.6 11.1
23:45 1020 30.12 849 25.07 -4.4 24 56 -12 10.3
23:50 1020 30.12 849 25.07 -4.3 24.3 58 -11.3 11.6
23:55 1020 30.12 849 25.07 -4.3 24.3 55 -12.1 10.2
24:00 1020 30.12 849 25.07 -4.3 24.2 57 -11.5 11.2